createdAt,value
2019-05-09T00:00:43.876Z,0
2019-05-09T00:01:54.236Z,0
2019-05-09T00:03:03.705Z,0.1
2019-05-09T00:04:13.869Z,0
2019-05-09T00:05:25.363Z,0.1
2019-05-09T00:06:34.042Z,0.1
2019-05-09T00:07:43.902Z,0.1
2019-05-09T00:08:53.337Z,0.1
2019-05-09T00:10:03.952Z,0.1
2019-05-09T00:11:14.402Z,0.1
2019-05-09T00:12:23.562Z,0.1
2019-05-09T00:13:34.081Z,0
2019-05-09T00:14:43.728Z,0.1
2019-05-09T00:15:54.118Z,0.1
2019-05-09T00:17:03.653Z,0.1
2019-05-09T00:18:14.182Z,0
2019-05-09T00:19:23.759Z,0.1
2019-05-09T00:20:33.203Z,0.1
2019-05-09T00:21:43.655Z,0.1
2019-05-09T00:22:53.901Z,0.2
2019-05-09T00:24:03.713Z,0.2
2019-05-09T00:25:13.289Z,0.1
2019-05-09T00:26:23.522Z,0.1
2019-05-09T00:27:33.196Z,0
2019-05-09T00:28:43.896Z,0
2019-05-09T00:29:53.120Z,0.1
2019-05-09T00:31:03.381Z,0.1
2019-05-09T00:32:13.661Z,0.1
2019-05-09T00:33:23.531Z,0.1
2019-05-09T00:34:33.784Z,0.3
2019-05-09T00:35:44.181Z,0.2
2019-05-09T00:36:53.951Z,0
2019-05-09T00:38:04.253Z,0.1
2019-05-09T00:39:13.520Z,0
2019-05-09T00:40:23.813Z,0.1
2019-05-09T00:41:33.123Z,0
2019-05-09T00:42:44.022Z,0.1
2019-05-09T00:43:54.257Z,0.1
2019-05-09T00:45:04.090Z,0.1
2019-05-09T00:46:14.089Z,0.1
2019-05-09T00:47:24.001Z,0.1
2019-05-09T00:48:33.749Z,0
2019-05-09T00:49:43.468Z,0.1
2019-05-09T00:50:54.390Z,0.1
2019-05-09T00:52:03.576Z,0
2019-05-09T00:53:13.735Z,0.1
2019-05-09T00:54:24.019Z,0.1
2019-05-09T00:55:33.357Z,0
2019-05-09T00:56:43.565Z,0
2019-05-09T00:57:53.529Z,0.1
2019-05-09T00:59:04.075Z,0
2019-05-09T01:00:14.477Z,0.1
2019-05-09T01:01:24.272Z,0.1
2019-05-09T01:02:34.081Z,0.2
2019-05-09T01:03:43.306Z,0
2019-05-09T01:04:53.191Z,0.1
2019-05-09T01:06:04.022Z,0.1
2019-05-09T01:07:13.888Z,0.1
2019-05-09T01:08:24.192Z,0
2019-05-09T01:09:33.525Z,0.1
2019-05-09T01:10:43.596Z,0.1
2019-05-09T01:11:53.352Z,0.2
2019-05-09T01:13:03.664Z,0.2
2019-05-09T01:14:14.152Z,0.1
2019-05-09T01:15:23.937Z,0.1
2019-05-09T01:16:33.565Z,0
2019-05-09T01:17:44.128Z,0
2019-05-09T01:18:54.308Z,0.1
2019-05-09T01:20:03.732Z,0
2019-05-09T01:21:13.579Z,0.1
2019-05-09T01:22:23.609Z,0.1
2019-05-09T01:23:34.251Z,0.2
2019-05-09T01:24:44.269Z,0.1
2019-05-09T01:25:53.752Z,0
2019-05-09T01:27:03.697Z,0.1
2019-05-09T01:28:13.906Z,0.1
2019-05-09T01:29:23.582Z,0.1
2019-05-09T01:30:33.657Z,0.1
2019-05-09T01:31:43.535Z,0.1
2019-05-09T01:32:53.984Z,0.1
2019-05-09T01:34:04.090Z,0
2019-05-09T01:35:13.592Z,0.1
2019-05-09T01:36:23.525Z,0.1
2019-05-09T01:37:34.153Z,0
2019-05-09T01:38:43.465Z,0.1
2019-05-09T01:39:53.455Z,0.1
2019-05-09T01:41:03.978Z,0.1
2019-05-09T01:42:13.724Z,0.1
2019-05-09T01:43:24.352Z,0.1
2019-05-09T01:44:33.660Z,0.1
2019-05-09T01:45:43.604Z,0.1
2019-05-09T01:46:54.084Z,0.1
2019-05-09T01:48:03.459Z,0.1
2019-05-09T01:49:13.996Z,0.2
2019-05-09T01:50:23.492Z,0.1
2019-05-09T01:51:33.704Z,0
2019-05-09T01:52:43.852Z,0
2019-05-09T01:53:53.287Z,0
2019-05-09T01:55:03.671Z,0.2
2019-05-09T01:56:13.936Z,0.1
2019-05-09T01:57:23.334Z,0.1
2019-05-09T01:58:34.157Z,0.1
2019-05-09T01:59:44.310Z,0
2019-05-09T02:00:54.138Z,0.1
2019-05-09T02:02:08.055Z,0
2019-05-09T02:03:14.141Z,0.1
2019-05-09T02:04:24.345Z,0
2019-05-09T02:05:34.018Z,0
2019-05-09T02:06:43.988Z,0
2019-05-09T02:07:54.171Z,0
2019-05-09T02:09:03.521Z,0
2019-05-09T02:10:13.880Z,0
2019-05-09T02:11:23.924Z,0
2019-05-09T02:12:33.876Z,0
2019-05-09T02:13:44.182Z,0
2019-05-09T02:14:54.226Z,0.1
2019-05-09T02:16:03.888Z,0.1
2019-05-09T02:17:14.001Z,0
2019-05-09T02:18:23.177Z,0
2019-05-09T02:19:33.224Z,0.1
2019-05-09T02:20:43.842Z,0
2019-05-09T02:21:53.204Z,0
2019-05-09T02:23:03.633Z,0.1
2019-05-09T02:24:14.024Z,0
2019-05-09T02:25:24.277Z,0
2019-05-09T02:26:33.511Z,0
2019-05-09T02:27:43.616Z,0
2019-05-09T02:28:53.788Z,0.1
2019-05-09T02:30:05.733Z,0
2019-05-09T02:31:16.107Z,0
2019-05-09T02:32:24.343Z,0
2019-05-09T02:33:34.879Z,0
2019-05-09T02:34:44.571Z,0.1
2019-05-09T02:35:58.125Z,0.1
2019-05-09T02:37:04.745Z,0
2019-05-09T02:38:14.317Z,0.1
2019-05-09T02:39:23.900Z,0
2019-05-09T02:40:33.490Z,0
2019-05-09T02:41:59.391Z,0
2019-05-09T02:42:53.675Z,0
2019-05-09T02:44:03.310Z,0
2019-05-09T02:45:12.935Z,0.1
2019-05-09T02:46:22.539Z,0
2019-05-09T02:47:32.127Z,0.1
2019-05-09T02:48:41.698Z,0
2019-05-09T02:49:51.311Z,0
2019-05-09T02:51:00.942Z,0
2019-05-09T02:52:10.534Z,0
2019-05-09T02:53:20.114Z,0.1
2019-05-09T02:54:30.163Z,0
2019-05-09T02:55:39.319Z,0
2019-05-09T02:56:49.467Z,0.1
2019-05-09T02:57:59.256Z,0
2019-05-09T02:59:09.538Z,0.2
2019-05-09T03:00:19.916Z,0.1
2019-05-09T03:01:29.602Z,0.1
2019-05-09T03:02:39.007Z,0.1
2019-05-09T03:03:48.608Z,0.1
2019-05-09T03:04:58.437Z,0.1
2019-05-09T03:06:09.064Z,0.1
2019-05-09T03:07:19.002Z,0.1
2019-05-09T03:08:29.513Z,0
2019-05-09T03:09:38.922Z,0.1
2019-05-09T03:10:49.073Z,0.1
2019-05-09T03:11:59.299Z,0.1
2019-05-09T03:13:09.628Z,0.2
2019-05-09T03:14:19.558Z,0.1
2019-05-09T03:15:29.248Z,0.1
2019-05-09T03:16:39.912Z,0.1
2019-05-09T03:17:49.622Z,0
2019-05-09T03:18:59.309Z,0.1
2019-05-09T03:20:09.506Z,0.1
2019-05-09T03:21:19.233Z,0.3
2019-05-09T03:22:28.852Z,0
2019-05-09T03:23:38.781Z,0.1
2019-05-09T03:24:48.709Z,0.1
2019-05-09T03:25:58.756Z,0.1
2019-05-09T03:27:08.753Z,0.1
2019-05-09T03:28:18.595Z,0.1
2019-05-09T03:29:29.135Z,0.1
2019-05-09T03:30:39.630Z,0
2019-05-09T03:31:50.001Z,0.2
2019-05-09T03:32:59.832Z,0
2019-05-09T03:34:09.661Z,0.2
2019-05-09T03:35:18.745Z,0.1
2019-05-09T03:36:28.370Z,0
2019-05-09T03:37:37.980Z,0
2019-05-09T03:38:47.693Z,0.2
2019-05-09T03:39:58.061Z,0.1
2019-05-09T03:41:08.463Z,0.1
2019-05-09T03:42:20.739Z,0.2
2019-05-09T03:43:27.979Z,0.1
2019-05-09T03:44:38.450Z,0.1
2019-05-09T03:45:48.189Z,0
2019-05-09T03:46:58.139Z,0.1
2019-05-09T03:48:07.437Z,0.1
2019-05-09T03:49:17.941Z,0.1
2019-05-09T03:50:28.010Z,0
2019-05-09T03:51:37.865Z,0
2019-05-09T03:52:47.745Z,0.1
2019-05-09T03:53:57.650Z,0.2
2019-05-09T03:55:07.376Z,0
2019-05-09T03:56:18.140Z,0.1
2019-05-09T03:57:28.299Z,0
2019-05-09T03:58:38.577Z,0.1
2019-05-09T03:59:48.087Z,0.2
2019-05-09T04:00:57.967Z,0.1
2019-05-09T04:02:10.034Z,0.1
2019-05-09T04:03:20.245Z,0.1
2019-05-09T04:04:28.810Z,0.1
2019-05-09T04:05:38.416Z,0.1
2019-05-09T04:06:48.116Z,0.1
2019-05-09T04:07:58.335Z,0.1
2019-05-09T04:09:07.561Z,0.1
2019-05-09T04:10:18.000Z,0.1
2019-05-09T04:11:27.639Z,0.1
2019-05-09T04:12:37.607Z,0
2019-05-09T04:13:47.893Z,0.1
2019-05-09T04:14:58.375Z,0.1
2019-05-09T04:16:08.086Z,0.1
2019-05-09T04:17:18.169Z,0
2019-05-09T04:18:27.754Z,0.1
2019-05-09T04:19:38.002Z,0.1
2019-05-09T04:20:48.194Z,0.2
2019-05-09T04:21:57.663Z,0
2019-05-09T04:23:07.925Z,0
2019-05-09T04:24:17.727Z,0.1
2019-05-09T04:25:27.377Z,0.1
2019-05-09T04:26:38.010Z,0.1
2019-05-09T04:27:47.975Z,0
2019-05-09T04:28:57.753Z,0.1
2019-05-09T04:30:09.347Z,0.1
2019-05-09T04:31:17.959Z,0.1
2019-05-09T04:32:27.472Z,0.3
2019-05-09T04:33:38.276Z,0.2
2019-05-09T04:34:47.696Z,0.1
2019-05-09T04:35:57.880Z,0.1
2019-05-09T04:37:07.998Z,0.1
2019-05-09T04:38:17.948Z,0.2
2019-05-09T04:39:28.202Z,0.1
2019-05-09T04:40:44.559Z,0.1
2019-05-09T04:41:48.816Z,0.2
2019-05-09T04:43:10.656Z,0.1
2019-05-09T04:44:14.162Z,0.1
2019-05-09T04:45:19.815Z,0.1
2019-05-09T04:46:29.395Z,0
2019-05-09T04:47:43.301Z,0
2019-05-09T04:48:53.980Z,0.2
2019-05-09T04:50:00.203Z,0.1
2019-05-09T04:51:09.793Z,0.2
2019-05-09T04:52:19.414Z,0.1
2019-05-09T04:53:28.999Z,0.1
2019-05-09T04:54:38.645Z,0.1
2019-05-09T04:55:48.224Z,0.1
2019-05-09T04:56:57.896Z,0.2
2019-05-09T04:58:09.216Z,0.1
2019-05-09T04:59:18.149Z,0.1
2019-05-09T05:00:27.321Z,0.3
2019-05-09T05:01:38.626Z,1.8
2019-05-09T05:02:48.414Z,5.3
2019-05-09T05:03:57.564Z,11.7
2019-05-09T05:05:07.745Z,11.6
2019-05-09T05:06:20.188Z,16.200001
2019-05-09T05:07:28.746Z,15.3
2019-05-09T05:08:37.974Z,14.6
2019-05-09T05:09:48.327Z,14.6
2019-05-09T05:10:58.192Z,14.5
2019-05-09T05:12:08.478Z,14.7
2019-05-09T05:13:25.844Z,13.7
2019-05-09T05:14:28.175Z,13.4
2019-05-09T05:15:37.811Z,13.3
2019-05-09T05:16:52.846Z,14
2019-05-09T05:17:58.312Z,13.5
2019-05-09T05:19:07.600Z,13.7
2019-05-09T05:20:18.537Z,13.4
2019-05-09T05:21:28.419Z,10.3
2019-05-09T05:22:38.754Z,6.3
2019-05-09T05:23:47.788Z,2.5
2019-05-09T05:24:59.607Z,0.7
2019-05-09T05:26:09.338Z,0.2
2019-05-09T05:27:19.003Z,0.2
2019-05-09T05:28:28.200Z,0.1
2019-05-09T05:29:38.442Z,0.2
2019-05-09T05:30:47.740Z,0.2
2019-05-09T05:31:58.055Z,0.2
2019-05-09T05:33:08.148Z,0.1
2019-05-09T05:34:18.225Z,0.1
2019-05-09T05:35:28.409Z,0.1
2019-05-09T05:36:38.326Z,0.1
2019-05-09T05:37:48.013Z,0.1
2019-05-09T05:38:58.414Z,0.1
2019-05-09T05:40:07.842Z,0.1
2019-05-09T05:41:18.256Z,0.1
2019-05-09T05:42:28.169Z,0.1
2019-05-09T05:43:43.576Z,0.4
2019-05-09T05:44:48.588Z,0.1
2019-05-09T05:45:58.491Z,0.3
2019-05-09T05:47:07.842Z,0.2
2019-05-09T05:48:17.604Z,0.2
2019-05-09T05:49:27.924Z,0.1
2019-05-09T05:50:38.248Z,0.1
2019-05-09T05:51:48.114Z,0.5
2019-05-09T05:52:57.729Z,0.1
2019-05-09T05:54:07.752Z,0.2
2019-05-09T05:55:18.173Z,0.1
2019-05-09T05:56:28.059Z,0.2
2019-05-09T05:57:38.506Z,0
2019-05-09T05:58:48.945Z,0.1
2019-05-09T05:59:58.697Z,0.1
2019-05-09T06:01:08.422Z,0.1
2019-05-09T06:02:17.967Z,0.1
2019-05-09T06:03:28.210Z,0
2019-05-09T06:04:38.329Z,0
2019-05-09T06:05:51.412Z,0.1
2019-05-09T06:06:58.910Z,0.1
2019-05-09T06:08:08.235Z,0.1
2019-05-09T06:09:18.859Z,0.1
2019-05-09T06:10:28.945Z,0.1
2019-05-09T06:11:38.664Z,0.1
2019-05-09T06:12:48.401Z,0.1
2019-05-09T06:14:05.213Z,0.1
2019-05-09T06:15:08.487Z,0.1
2019-05-09T06:16:21.755Z,0.1
2019-05-09T06:17:28.763Z,0.1
2019-05-09T06:18:38.557Z,0.1
2019-05-09T06:19:48.901Z,0.1
2019-05-09T06:20:58.582Z,0.2
2019-05-09T06:22:08.507Z,0.1
2019-05-09T06:23:17.882Z,0.2
2019-05-09T06:24:28.183Z,0.1
2019-05-09T06:25:38.889Z,0.2
2019-05-09T06:26:48.489Z,0.1
2019-05-09T06:27:58.495Z,0.1
2019-05-09T06:29:08.127Z,0
2019-05-09T06:30:17.597Z,0.1
2019-05-09T06:31:28.414Z,0
2019-05-09T06:32:38.432Z,0.1
2019-05-09T06:33:53.307Z,0.1
2019-05-09T06:34:58.768Z,0.2
2019-05-09T06:36:08.478Z,0.2
2019-05-09T06:37:18.438Z,0.1
2019-05-09T06:38:28.191Z,0.1
2019-05-09T06:39:37.849Z,0.1
2019-05-09T06:40:47.551Z,0.1
2019-05-09T06:41:57.476Z,0.1
2019-05-09T06:43:08.012Z,0.1
2019-05-09T06:44:20.533Z,0.1
2019-05-09T06:45:28.151Z,0.1
2019-05-09T06:46:37.929Z,0.1
2019-05-09T06:47:48.641Z,0.3
2019-05-09T06:49:19.793Z,0
2019-05-09T06:50:08.578Z,0.2
2019-05-09T06:51:21.173Z,0
2019-05-09T06:52:28.773Z,0
2019-05-09T06:53:38.381Z,4.3
2019-05-09T06:54:48.549Z,0.1
2019-05-09T06:55:58.061Z,0.1
2019-05-09T06:57:07.927Z,0
2019-05-09T06:58:18.358Z,0.1
2019-05-09T06:59:28.276Z,0.1
2019-05-09T07:00:37.876Z,0.1
2019-05-09T07:01:48.188Z,0.1
2019-05-09T07:03:00.081Z,0.2
2019-05-09T07:04:09.121Z,0.1
2019-05-09T07:05:18.456Z,0.1
2019-05-09T07:06:28.422Z,0.1
2019-05-09T07:07:37.720Z,0.1
2019-05-09T07:08:47.743Z,0.1
2019-05-09T07:09:58.539Z,0.1
2019-05-09T07:11:07.709Z,0
2019-05-09T07:12:18.055Z,0.2
2019-05-09T07:13:27.718Z,0.1
2019-05-09T07:14:40.749Z,0
2019-05-09T07:15:48.196Z,0.1
2019-05-09T07:16:58.388Z,0.1
2019-05-09T07:18:08.281Z,0.1
2019-05-09T07:19:17.707Z,0.1
2019-05-09T07:20:28.421Z,0.2
2019-05-09T07:21:37.899Z,0.1
2019-05-09T07:22:48.150Z,0
2019-05-09T07:23:58.251Z,0.4
2019-05-09T07:25:10.869Z,0
2019-05-09T07:26:18.285Z,0.1
2019-05-09T07:27:28.520Z,0.1
2019-05-09T07:28:37.745Z,0.1
2019-05-09T07:29:48.085Z,0
2019-05-09T07:30:57.707Z,0.1
2019-05-09T07:32:07.573Z,0
2019-05-09T07:33:18.780Z,0.2
2019-05-09T07:34:27.764Z,0.1
2019-05-09T07:35:38.202Z,0.2
2019-05-09T07:36:47.779Z,0
2019-05-09T07:37:57.918Z,0.1
2019-05-09T07:39:08.703Z,0.1
2019-05-09T07:40:18.119Z,0.2
2019-05-09T07:41:28.170Z,0.1
2019-05-09T07:42:39.027Z,0.1
2019-05-09T07:43:48.315Z,0.1
2019-05-09T07:44:59.049Z,0.1
2019-05-09T07:46:09.050Z,0
2019-05-09T07:47:18.096Z,0
2019-05-09T07:48:28.531Z,0
2019-05-09T07:49:37.756Z,0.1
2019-05-09T07:50:48.060Z,0.1
2019-05-09T07:51:58.429Z,0
2019-05-09T07:53:08.877Z,0
2019-05-09T07:54:24.654Z,0.1
2019-05-09T07:55:28.347Z,0.1
2019-05-09T07:56:38.036Z,0.1
2019-05-09T07:57:54.868Z,0.3
2019-05-09T07:58:58.563Z,0.1
2019-05-09T08:00:07.921Z,0.1
2019-05-09T08:01:19.002Z,0.1
2019-05-09T08:02:28.331Z,0.1
2019-05-09T08:03:38.726Z,0.1
2019-05-09T08:04:48.832Z,0.1
2019-05-09T08:05:58.046Z,0.2
2019-05-09T08:07:08.321Z,0.1
2019-05-09T08:08:18.645Z,0
2019-05-09T08:09:28.195Z,0.1
2019-05-09T08:10:38.511Z,0.1
2019-05-09T08:11:48.280Z,0
2019-05-09T08:12:58.473Z,0.1
2019-05-09T08:14:10.757Z,0.1
2019-05-09T08:15:20.129Z,0.1
2019-05-09T08:16:29.149Z,0
2019-05-09T08:17:38.731Z,0
2019-05-09T08:18:48.502Z,0.2
2019-05-09T08:19:58.398Z,0.1
2019-05-09T08:21:08.406Z,0.1
2019-05-09T08:22:21.141Z,0
2019-05-09T08:23:28.743Z,0.1
2019-05-09T08:24:38.351Z,0
2019-05-09T08:25:48.536Z,0
2019-05-09T08:26:58.144Z,0
2019-05-09T08:28:09.000Z,0.1
2019-05-09T08:29:19.905Z,0
2019-05-09T08:30:35.307Z,0.1
2019-05-09T08:31:40.340Z,0
2019-05-09T08:32:49.582Z,0
2019-05-09T08:33:59.579Z,0
2019-05-09T08:35:08.779Z,0
2019-05-09T08:36:20.124Z,0.1
2019-05-09T08:37:28.962Z,0.1
2019-05-09T08:38:39.227Z,0.1
2019-05-09T08:39:48.518Z,0
2019-05-09T08:40:58.826Z,0.1
2019-05-09T08:42:08.819Z,0
2019-05-09T08:43:19.843Z,0
2019-05-09T08:44:31.128Z,0
2019-05-09T08:45:39.208Z,0
2019-05-09T08:46:48.785Z,0.1
2019-05-09T08:47:58.379Z,0.1
2019-05-09T08:49:08.373Z,0.1
2019-05-09T08:50:17.735Z,0.1
2019-05-09T08:51:34.877Z,0
2019-05-09T08:52:37.829Z,0
2019-05-09T08:53:48.148Z,0
2019-05-09T08:54:57.798Z,0
2019-05-09T08:56:08.619Z,0
2019-05-09T08:57:18.182Z,0.1
2019-05-09T08:58:27.900Z,0.1
2019-05-09T08:59:38.215Z,0.1
2019-05-09T09:00:48.985Z,0.1
2019-05-09T09:02:11.929Z,0
2019-05-09T09:03:08.354Z,0.1
2019-05-09T09:04:18.915Z,0.1
2019-05-09T09:05:28.994Z,0
2019-05-09T09:06:38.218Z,0
2019-05-09T09:07:48.432Z,0.1
2019-05-09T09:08:58.357Z,0.1
2019-05-09T09:10:08.544Z,0.1
2019-05-09T09:11:18.688Z,0.1
2019-05-09T09:12:33.894Z,0.1
2019-05-09T09:13:38.722Z,0.1
2019-05-09T09:14:48.264Z,0.1
2019-05-09T09:16:11.517Z,0
2019-05-09T09:17:08.368Z,0.2
2019-05-09T09:18:18.188Z,0
2019-05-09T09:19:28.095Z,0.1
2019-05-09T09:20:37.936Z,0
2019-05-09T09:21:49.626Z,0
2019-05-09T09:22:58.448Z,0
2019-05-09T09:24:08.702Z,0.1
2019-05-09T09:25:18.582Z,0.1
2019-05-09T09:26:27.956Z,0
2019-05-09T09:27:38.016Z,0
2019-05-09T09:28:48.405Z,0
2019-05-09T09:29:58.674Z,0
2019-05-09T09:31:08.330Z,0
2019-05-09T09:32:18.848Z,0
2019-05-09T09:33:28.065Z,0
2019-05-09T09:34:37.872Z,0
2019-05-09T09:35:48.870Z,0.1
2019-05-09T09:37:02.858Z,0
2019-05-09T09:38:09.272Z,0.1
2019-05-09T09:39:18.624Z,0
2019-05-09T09:40:28.162Z,0
2019-05-09T09:41:38.550Z,0
2019-05-09T09:42:48.973Z,0.1
2019-05-09T09:43:58.326Z,0.1
2019-05-09T09:45:07.892Z,0.1
2019-05-09T09:46:18.133Z,0
2019-05-09T09:47:28.526Z,0.1
2019-05-09T09:48:38.802Z,0
2019-05-09T09:49:48.967Z,0.1
2019-05-09T09:50:58.108Z,0
2019-05-09T09:52:08.495Z,0
2019-05-09T09:53:18.486Z,0
2019-05-09T09:54:28.086Z,0
2019-05-09T09:55:38.355Z,0.1
2019-05-09T09:56:47.891Z,0
2019-05-09T09:57:57.914Z,0
2019-05-09T09:59:08.147Z,0.1
2019-05-09T10:00:18.047Z,0
2019-05-09T10:01:28.679Z,0
2019-05-09T10:02:38.147Z,0
2019-05-09T10:03:47.687Z,0
2019-05-09T10:04:57.239Z,0
2019-05-09T10:06:06.757Z,0.1
2019-05-09T10:07:18.741Z,0
2019-05-09T10:08:26.819Z,0
2019-05-09T10:09:36.349Z,0
2019-05-09T10:10:48.290Z,0
2019-05-09T10:11:57.967Z,0.3
2019-05-09T10:13:10.318Z,0
2019-05-09T10:14:18.598Z,0.1
2019-05-09T10:15:28.236Z,0.1
2019-05-09T10:16:38.979Z,0
2019-05-09T10:17:48.166Z,0
2019-05-09T10:18:57.947Z,0.1
2019-05-09T10:20:07.207Z,0.2
2019-05-09T10:21:16.723Z,0.1
2019-05-09T10:22:26.904Z,0
2019-05-09T10:23:37.810Z,0
2019-05-09T10:24:47.835Z,0.1
2019-05-09T10:25:58.108Z,0.1
2019-05-09T10:27:08.634Z,0.1
2019-05-09T10:28:21.306Z,0
2019-05-09T10:29:28.470Z,0.1
2019-05-09T10:30:38.424Z,0.1
2019-05-09T10:31:48.745Z,0
2019-05-09T10:32:58.409Z,0.1
2019-05-09T10:34:10.761Z,0.1
2019-05-09T10:35:18.113Z,0.1
2019-05-09T10:36:27.913Z,0.1
2019-05-09T10:37:39.146Z,0.1
2019-05-09T10:38:47.943Z,0
2019-05-09T10:39:58.030Z,0.1
2019-05-09T10:41:10.792Z,0
2019-05-09T10:42:18.886Z,0
2019-05-09T10:43:35.334Z,0
2019-05-09T10:44:38.268Z,0
2019-05-09T10:45:48.386Z,0.1
2019-05-09T10:47:01.565Z,0.2
2019-05-09T10:48:08.366Z,0
2019-05-09T10:49:17.352Z,0.1
2019-05-09T10:50:32.576Z,0
2019-05-09T10:51:37.405Z,0.1
2019-05-09T10:52:48.125Z,0.3
2019-05-09T10:53:58.682Z,0
2019-05-09T10:55:09.011Z,0
2019-05-09T10:56:19.028Z,0.1
2019-05-09T10:57:31.403Z,0.1
2019-05-09T10:58:38.542Z,0
2019-05-09T10:59:48.375Z,0.2
2019-05-09T11:00:58.620Z,0
2019-05-09T11:02:09.430Z,0.2
2019-05-09T11:03:18.614Z,0
2019-05-09T11:04:28.743Z,0.2
2019-05-09T11:05:37.681Z,0.2
2019-05-09T11:06:47.240Z,0
2019-05-09T11:07:58.734Z,0.1
2019-05-09T11:09:08.546Z,0.2
2019-05-09T11:10:25.362Z,0.1
2019-05-09T11:11:28.695Z,0.1
2019-05-09T11:12:37.835Z,0.1
2019-05-09T11:13:48.125Z,0.1
2019-05-09T11:14:59.348Z,0
2019-05-09T11:16:08.436Z,0.2
2019-05-09T11:17:21.496Z,0
2019-05-09T11:18:28.687Z,0
2019-05-09T11:19:37.961Z,0.1
2019-05-09T11:20:47.478Z,0.1
2019-05-09T11:21:58.601Z,0.1
2019-05-09T11:23:08.181Z,0.1
2019-05-09T11:24:18.712Z,0.3
2019-05-09T11:25:27.899Z,0
2019-05-09T11:26:39.490Z,0
2019-05-09T11:27:48.656Z,0.1
2019-05-09T11:28:58.878Z,0
2019-05-09T11:30:08.324Z,0.1
2019-05-09T11:31:18.330Z,0.1
2019-05-09T11:32:27.940Z,0.1
2019-05-09T11:33:38.544Z,0.1
2019-05-09T11:34:48.554Z,0.2
2019-05-09T11:35:58.274Z,0.2
2019-05-09T11:37:08.428Z,0.1
2019-05-09T11:38:29.114Z,0.4
2019-05-09T11:39:36.291Z,0.1
2019-05-09T11:40:38.360Z,0
2019-05-09T11:41:48.771Z,0.1
2019-05-09T11:42:58.460Z,0.1
2019-05-09T11:44:08.639Z,0.1
2019-05-09T11:45:17.989Z,0.2
2019-05-09T11:46:28.734Z,0.1
2019-05-09T11:47:45.331Z,0.1
2019-05-09T11:48:48.069Z,0
2019-05-09T11:49:57.877Z,0
2019-05-09T11:51:08.934Z,0.1
2019-05-09T11:52:18.293Z,0
2019-05-09T11:53:28.745Z,0.1
2019-05-09T11:54:38.796Z,0
2019-05-09T11:55:48.396Z,0.1
2019-05-09T11:56:57.810Z,0.2
2019-05-09T11:58:08.314Z,0
2019-05-09T11:59:18.838Z,0
2019-05-09T12:00:29.368Z,0
2019-05-09T12:01:39.663Z,0
2019-05-09T12:02:49.968Z,0
2019-05-09T12:03:58.869Z,0
2019-05-09T12:05:08.857Z,0
2019-05-09T12:06:19.959Z,0
2019-05-09T12:07:28.861Z,0
2019-05-09T12:08:38.694Z,0
2019-05-09T12:09:48.828Z,0
2019-05-09T12:10:58.118Z,0.1
2019-05-09T12:12:07.698Z,0.1
2019-05-09T12:13:18.564Z,0.1
2019-05-09T12:14:27.792Z,0
2019-05-09T12:15:38.928Z,0.1
2019-05-09T12:16:48.246Z,0
2019-05-09T12:17:59.049Z,0
2019-05-09T12:19:07.841Z,0
2019-05-09T12:20:18.028Z,0
2019-05-09T12:21:28.159Z,0.1
2019-05-09T12:22:37.414Z,0
2019-05-09T12:23:48.731Z,0
2019-05-09T12:24:59.160Z,0
2019-05-09T12:26:08.271Z,0
2019-05-09T12:27:18.728Z,0
2019-05-09T12:28:28.058Z,0
2019-05-09T12:29:38.645Z,0
2019-05-09T12:30:48.924Z,0
2019-05-09T12:31:58.622Z,0
2019-05-09T12:33:08.664Z,0
2019-05-09T12:34:19.226Z,0.1
2019-05-09T12:35:28.288Z,0
2019-05-09T12:36:39.716Z,0
2019-05-09T12:37:48.444Z,0
2019-05-09T12:38:59.003Z,0
2019-05-09T12:40:08.475Z,0
2019-05-09T12:41:18.898Z,0.1
2019-05-09T12:42:29.329Z,0
2019-05-09T12:43:38.952Z,0.1
2019-05-09T12:44:49.489Z,0
2019-05-09T12:45:59.035Z,0
2019-05-09T12:47:08.584Z,0
2019-05-09T12:48:19.411Z,0.1
2019-05-09T12:49:28.614Z,0.1
2019-05-09T12:50:38.775Z,0
2019-05-09T12:51:47.687Z,0
2019-05-09T12:52:57.949Z,0
2019-05-09T12:54:08.384Z,0
2019-05-09T12:55:17.837Z,0.1
2019-05-09T12:56:28.411Z,0
2019-05-09T12:57:38.607Z,0
2019-05-09T12:58:47.943Z,0.2
2019-05-09T12:59:58.670Z,0
2019-05-09T13:01:07.890Z,0.1
2019-05-09T13:02:17.815Z,0
2019-05-09T13:03:27.609Z,0
2019-05-09T13:04:38.168Z,0
2019-05-09T13:05:47.165Z,0
2019-05-09T13:06:58.619Z,0
2019-05-09T13:08:10.181Z,0
2019-05-09T13:09:17.854Z,0
2019-05-09T13:10:28.331Z,0
2019-05-09T13:11:39.018Z,0
2019-05-09T13:12:48.634Z,0
2019-05-09T13:13:58.626Z,0.1
2019-05-09T13:15:08.843Z,0.3
2019-05-09T13:16:17.842Z,0
2019-05-09T13:17:27.367Z,0
2019-05-09T13:18:37.549Z,0.1
2019-05-09T13:19:47.926Z,0
2019-05-09T13:20:58.035Z,0
2019-05-09T13:22:08.193Z,0
2019-05-09T13:23:18.110Z,0
2019-05-09T13:24:28.302Z,0.1
2019-05-09T13:25:38.121Z,0
2019-05-09T13:26:48.014Z,0
2019-05-09T13:27:58.176Z,0
2019-05-09T13:29:08.140Z,0
2019-05-09T13:30:19.091Z,0
2019-05-09T13:31:29.335Z,0
2019-05-09T13:32:38.081Z,0
2019-05-09T13:33:48.660Z,0
2019-05-09T13:34:58.294Z,0
2019-05-09T13:36:09.207Z,0
2019-05-09T13:37:18.940Z,0
2019-05-09T13:38:27.851Z,0
2019-05-09T13:39:39.627Z,0.1
2019-05-09T13:40:53.422Z,0
2019-05-09T13:41:58.512Z,0
2019-05-09T13:43:08.868Z,0
2019-05-09T13:44:18.453Z,0
2019-05-09T13:45:28.571Z,0
2019-05-09T13:46:38.753Z,0.1
2019-05-09T13:47:49.412Z,0
2019-05-09T13:49:10.569Z,0
2019-05-09T13:50:09.190Z,0
2019-05-09T13:51:18.794Z,0
2019-05-09T13:52:28.166Z,0
2019-05-09T13:53:38.673Z,0
2019-05-09T13:54:48.466Z,0
2019-05-09T13:55:57.970Z,0
2019-05-09T13:57:08.572Z,0.1
2019-05-09T13:58:19.477Z,0
2019-05-09T13:59:30.121Z,0
2019-05-09T14:00:48.155Z,0
2019-05-09T14:01:49.540Z,0
2019-05-09T14:02:59.133Z,0
2019-05-09T14:04:08.635Z,0
2019-05-09T14:05:18.923Z,0
2019-05-09T14:06:28.734Z,0
2019-05-09T14:07:38.225Z,0
2019-05-09T14:08:48.912Z,0
2019-05-09T14:09:58.281Z,0
2019-05-09T14:11:08.453Z,0
2019-05-09T14:12:17.721Z,0
2019-05-09T14:13:27.907Z,0
2019-05-09T14:14:37.965Z,0
2019-05-09T14:15:48.793Z,0
2019-05-09T14:16:59.165Z,0
2019-05-09T14:18:08.332Z,0
2019-05-09T14:19:35.687Z,0
2019-05-09T14:20:27.971Z,0.2
2019-05-09T14:21:37.500Z,0
2019-05-09T14:22:48.978Z,0
2019-05-09T14:24:10.275Z,0.1
2019-05-09T14:25:11.090Z,0
2019-05-09T14:26:18.558Z,0.1
2019-05-09T14:27:28.607Z,0
2019-05-09T14:28:38.559Z,0
2019-05-09T14:29:49.655Z,0
2019-05-09T14:30:59.409Z,0
2019-05-09T14:32:08.154Z,0
2019-05-09T14:33:17.639Z,0
2019-05-09T14:34:29.718Z,0
2019-05-09T14:35:38.645Z,0
2019-05-09T14:36:49.505Z,0
2019-05-09T14:37:59.195Z,0
2019-05-09T14:39:09.209Z,0
2019-05-09T14:40:18.775Z,0
2019-05-09T14:41:28.346Z,0
2019-05-09T14:42:39.341Z,0
2019-05-09T14:43:48.410Z,0.1
2019-05-09T14:44:58.474Z,1
2019-05-09T14:46:08.125Z,0
2019-05-09T14:47:17.601Z,0
2019-05-09T14:48:28.645Z,0
2019-05-09T14:49:41.125Z,0
2019-05-09T14:50:49.524Z,0.1
2019-05-09T14:51:58.105Z,0
2019-05-09T14:53:08.597Z,0
2019-05-09T14:54:18.012Z,0
2019-05-09T14:55:28.512Z,0
2019-05-09T14:56:41.669Z,0
2019-05-09T14:57:48.569Z,0
2019-05-09T14:58:58.299Z,0
2019-05-09T15:00:07.928Z,0.1
2019-05-09T15:01:19.285Z,0.2
2019-05-09T15:02:27.812Z,0
2019-05-09T15:03:38.827Z,0.1
2019-05-09T15:04:48.522Z,0
2019-05-09T15:05:57.557Z,0.1
2019-05-09T15:07:07.573Z,0
2019-05-09T15:08:18.041Z,0.1
2019-05-09T15:09:28.352Z,0.1
2019-05-09T15:10:38.383Z,0
2019-05-09T15:11:48.364Z,0
2019-05-09T15:12:58.490Z,0
2019-05-09T15:14:08.461Z,0
2019-05-09T15:15:18.417Z,0
2019-05-09T15:16:28.180Z,0
2019-05-09T15:17:37.728Z,0
2019-05-09T15:18:48.601Z,0
2019-05-09T15:20:00.536Z,0
2019-05-09T15:21:08.226Z,0.1
2019-05-09T15:22:17.772Z,0
2019-05-09T15:23:29.153Z,0
2019-05-09T15:24:38.781Z,0
2019-05-09T15:25:48.320Z,0
2019-05-09T15:26:58.134Z,0
2019-05-09T15:28:08.193Z,0
2019-05-09T15:29:16.935Z,0
2019-05-09T15:30:28.597Z,0
2019-05-09T15:31:39.089Z,0.1
2019-05-09T15:32:47.620Z,0.1
2019-05-09T15:33:57.045Z,0
2019-05-09T15:35:08.910Z,0
2019-05-09T15:36:19.187Z,0
2019-05-09T15:37:28.535Z,0
2019-05-09T15:38:38.185Z,0
2019-05-09T15:39:48.389Z,0.1
2019-05-09T15:40:57.575Z,0
2019-05-09T15:42:07.458Z,0
2019-05-09T15:43:18.505Z,0
2019-05-09T15:44:26.861Z,0
2019-05-09T15:45:36.374Z,0
2019-05-09T15:46:45.883Z,0
2019-05-09T15:47:55.405Z,0.1
2019-05-09T15:49:04.947Z,0
2019-05-09T15:50:19.920Z,0
2019-05-09T15:51:24.975Z,0
2019-05-09T15:52:34.539Z,0
2019-05-09T15:53:44.067Z,0
2019-05-09T15:54:53.617Z,0
2019-05-09T15:56:03.121Z,0
2019-05-09T15:57:12.698Z,0
2019-05-09T15:58:22.222Z,0
2019-05-09T15:59:31.726Z,0
2019-05-09T16:00:41.263Z,0
2019-05-09T16:01:49.800Z,0.2
2019-05-09T16:02:59.359Z,0
2019-05-09T16:04:08.904Z,0
2019-05-09T16:05:18.418Z,0
2019-05-09T16:06:32.880Z,0.1
2019-05-09T16:07:38.525Z,0
2019-05-09T16:08:48.059Z,0
2019-05-09T16:09:58.125Z,0
2019-05-09T16:11:08.657Z,0
2019-05-09T16:12:18.429Z,0
2019-05-09T16:13:28.423Z,0
2019-05-09T16:14:38.114Z,0
2019-05-09T16:15:48.595Z,0
2019-05-09T16:16:57.708Z,0
2019-05-09T16:18:08.573Z,0
2019-05-09T16:19:17.904Z,0
2019-05-09T16:20:36.727Z,0
2019-05-09T16:21:38.323Z,0
2019-05-09T16:22:48.228Z,0
2019-05-09T16:23:59.213Z,0
2019-05-09T16:25:07.750Z,0
2019-05-09T16:26:18.077Z,0
2019-05-09T16:27:26.785Z,0
2019-05-09T16:28:37.890Z,0
2019-05-09T16:29:48.559Z,0
2019-05-09T16:30:58.503Z,0
2019-05-09T16:32:08.735Z,0
2019-05-09T16:33:18.447Z,0
2019-05-09T16:34:28.256Z,0